Time;durP1;ratioP1;P1;durP2;ratioP2;P2;SDS_P1;SDS_P2;PMS_P1;PMS_P2;Temp;Humidity;BMP_temperature;BMP_pressure;BME280_temperature;BME280_humidity;BME280_pressure;Samples;Min_cycle;Max_cycle;Signal;HPM_P1;HPM_P2
2022/09/28 00:02:10;;;;;;;;;;;;;;;8.01;91.72;99556.44;4962692;28;20287;-63
2022/09/28 00:04:35;;;;;;;;;;;;;;;8.03;91.77;99556.47;4960925;28;19952;-63
2022/09/28 00:07:01;;;;;;;;;;;;;;;8.02;91.69;99563.34;4960201;28;20440;-63
2022/09/28 00:09:26;;;;;;;;;;;;;;;8.02;91.80;99560.75;4964235;28;19917;-63
2022/09/28 00:11:55;;;;;;;;;;;;;;;8.00;91.59;99562.47;4966075;28;19922;-63
2022/09/28 00:14:21;;;;;;;;;;;;;;;8.00;91.76;99559.88;4964707;28;19934;-63
2022/09/28 00:16:47;;;;;;;;;;;;;;;8.00;92.00;99554.69;4964144;28;19914;-63
2022/09/28 00:19:12;;;;;;;;;;;;;;;7.99;91.83;99555.53;4964515;28;19984;-63
2022/09/28 00:21:39;;;;;;;;;;;;;;;7.99;91.88;99547.75;4965094;28;19922;-63
2022/09/28 00:24:14;;;;;;;;;;;;;;;8.00;91.86;99554.69;4967081;28;20017;-63
2022/09/28 00:26:47;;;;;;;;;;;;;;;7.99;91.91;99543.44;4965544;28;20361;-69
2022/09/28 00:29:15;;;;;;;;;;;;;;;7.98;91.60;99546.00;4964952;28;20006;-69
2022/09/28 00:31:40;;;;;;;;;;;;;;;7.99;91.75;99545.16;4964253;28;20016;-69
2022/09/28 00:34:05;;;;;;;;;;;;;;;7.98;91.60;99538.22;4974320;28;20354;-69
2022/09/28 00:36:33;;;;;;;;;;;;;;;7.96;91.88;99537.34;4975836;28;19917;-69
2022/09/28 00:39:02;;;;;;;;;;;;;;;7.95;91.84;99535.56;4980416;28;19914;-69
2022/09/28 00:41:28;;;;;;;;;;;;;;;7.96;91.67;99530.41;4978033;28;19921;-69
2022/09/28 00:44:13;;;;;;;;;;;;;;;7.97;91.63;99534.75;4972978;28;19910;-68
2022/09/28 00:46:39;;;;;;;;;;;;;;;7.98;91.42;99531.31;4976355;28;19921;-69
2022/09/28 00:49:07;;;;;;;;;;;;;;;7.99;91.73;99524.41;4966780;28;19921;-69
2022/09/28 00:51:34;;;;;;;;;;;;;;;7.99;91.84;99521.81;4964408;28;19969;-69
2022/09/28 00:54:01;;;;;;;;;;;;;;;8.01;91.77;99520.13;4967360;28;19914;-69
2022/09/28 00:56:29;;;;;;;;;;;;;;;8.03;91.69;99518.41;4963394;28;19929;-68
2022/09/28 00:58:55;;;;;;;;;;;;;;;8.03;91.54;99518.41;4964972;28;19921;-69
2022/09/28 01:01:20;;;;;;;;;;;;;;;8.06;91.81;99520.16;4965041;28;20598;-69
2022/09/28 01:03:47;;;;;;;;;;;;;;;8.05;91.62;99516.69;4965753;28;19918;-69
2022/09/28 01:06:17;;;;;;;;;;;;;;;8.07;91.68;99514.13;4963972;28;19925;-68
2022/09/28 01:08:43;;;;;;;;;;;;;;;8.09;91.72;99510.69;4963872;28;19972;-69
2022/09/28 01:11:08;;;;;;;;;;;;;;;8.10;91.88;99514.16;4965277;28;19964;-69
2022/09/28 01:13:34;;;;;;;;;;;;;;;8.08;91.53;99511.56;4963919;28;20126;-69
2022/09/28 01:16:08;;;;;;;;;;;;;;;8.09;91.72;99513.28;4963148;28;19925;-69
2022/09/28 01:18:39;;;;;;;;;;;;;;;8.11;91.77;99516.78;4964303;28;20012;-69
2022/09/28 01:21:07;;;;;;;;;;;;;;;8.13;91.54;99522.00;4962470;28;20013;-68
2022/09/28 01:23:35;;;;;;;;;;;;;;;8.10;91.66;99519.34;4962465;28;19949;-69
2022/09/28 01:26:09;;;;;;;;;;;;;;;8.12;91.71;99518.50;4966473;28;19957;-69
2022/09/28 01:28:35;;;;;;;;;;;;;;;8.12;91.82;99523.69;4964318;28;19988;-68
2022/09/28 01:31:11;;;;;;;;;;;;;;;8.13;91.69;99529.78;4964125;28;19925;-69
2022/09/28 01:33:41;;;;;;;;;;;;;;;8.13;91.84;99524.59;4964711;28;19973;-68
2022/09/28 01:36:10;;;;;;;;;;;;;;;8.10;91.71;99522.81;4980658;28;20017;-69
2022/09/28 01:38:56;;;;;;;;;;;;;;;8.13;91.67;99522.84;4962933;28;20404;-69
2022/09/28 01:41:22;;;;;;;;;;;;;;;8.13;91.89;99524.59;4980883;28;19924;-69
2022/09/28 01:43:50;;;;;;;;;;;;;;;8.13;91.82;99522.00;4971719;28;19932;-69
2022/09/28 01:46:16;;;;;;;;;;;;;;;8.13;91.84;99530.63;4972881;28;20004;-69
2022/09/28 01:48:45;;;;;;;;;;;;;;;8.13;91.84;99525.44;4972481;28;20001;-69
2022/09/28 01:51:14;;;;;;;;;;;;;;;8.12;91.92;99531.47;4973044;28;19996;-69
2022/09/28 01:53:42;;;;;;;;;;;;;;;8.13;91.79;99530.63;4972982;28;19928;-68
2022/09/28 01:56:11;;;;;;;;;;;;;;;8.12;91.85;99533.22;4971714;28;19921;-70
2022/09/28 01:58:38;;;;;;;;;;;;;;;8.13;91.83;99541.00;4970763;28;20029;-69
2022/09/28 02:01:08;;;;;;;;;;;;;;;8.13;92.08;99530.63;4972349;28;20382;-69
2022/09/28 02:03:47;;;;;;;;;;;;;;;8.13;92.15;99530.63;4982228;28;20332;-69
2022/09/28 02:06:33;;;;;;;;;;;;;;;8.13;91.77;99525.44;4979369;28;20000;-63
2022/09/28 02:09:01;;;;;;;;;;;;;;;8.10;92.24;99522.81;4956520;28;19929;-63
2022/09/28 02:11:26;;;;;;;;;;;;;;;8.08;92.26;99523.63;4966359;28;19914;-63
2022/09/28 02:14:05;;;;;;;;;;;;;;;8.06;92.32;99517.56;4964961;28;19969;-63
2022/09/28 02:16:43;;;;;;;;;;;;;;;8.05;92.39;99519.28;4970475;28;19921;-63
2022/09/28 02:19:14;;;;;;;;;;;;;;;8.05;92.33;99527.06;4973733;28;19909;-63
2022/09/28 02:21:45;;;;;;;;;;;;;;;8.05;92.60;99521.88;4976222;28;20008;-63
2022/09/28 02:24:27;;;;;;;;;;;;;;;8.05;92.39;99521.00;4977043;28;19968;-63
2022/09/28 02:26:54;;;;;;;;;;;;;;;8.05;92.44;99529.66;4985436;28;19944;-63
2022/09/28 02:29:19;;;;;;;;;;;;;;;8.03;92.50;99530.50;4980129;28;20008;-63
2022/09/28 02:31:44;;;;;;;;;;;;;;;8.01;92.21;99514.94;4975393;28;20075;-63
2022/09/28 02:34:09;;;;;;;;;;;;;;;8.01;91.98;99522.72;4982790;28;20447;-63
2022/09/28 02:36:35;;;;;;;;;;;;;;;7.98;92.52;99525.25;4973164;28;19925;-68
2022/09/28 02:39:01;;;;;;;;;;;;;;;7.96;92.27;99526.97;4973002;28;20250;-69
2022/09/28 02:41:41;;;;;;;;;;;;;;;7.91;92.10;99523.44;4975387;28;19925;-68
2022/09/28 02:44:12;;;;;;;;;;;;;;;7.90;92.05;99521.69;4978268;28;19924;-68
2022/09/28 02:46:45;;;;;;;;;;;;;;;7.88;91.97;99518.19;4967259;28;19980;-68
2022/09/28 02:49:10;;;;;;;;;;;;;;;7.89;91.96;99523.41;4982446;28;19914;-68
2022/09/28 02:51:39;;;;;;;;;;;;;;;7.87;92.00;99521.66;4972831;28;19921;-69
2022/09/28 02:54:04;;;;;;;;;;;;;;;7.83;91.86;99529.41;4973834;28;19917;-69
2022/09/28 02:56:39;;;;;;;;;;;;;;;7.83;92.12;99529.41;4973221;28;19914;-68
2022/09/28 02:59:23;;;;;;;;;;;;;;;7.84;91.98;99532.88;4961287;28;20341;-69
2022/09/28 03:02:06;;;;;;;;;;;;;;;7.82;91.98;99530.25;4972378;28;20165;-68
2022/09/28 03:04:39;;;;;;;;;;;;;;;7.81;92.12;99538.00;4970574;28;20305;-68
2022/09/28 03:07:10;;;;;;;;;;;;;;;7.81;91.83;99532.81;4969347;28;19996;-69
2022/09/28 03:09:43;;;;;;;;;;;;;;;7.79;92.04;99530.22;4972853;28;19917;-68
2022/09/28 03:12:11;;;;;;;;;;;;;;;7.78;92.04;99533.66;4969589;28;19969;-69
2022/09/28 03:14:36;;;;;;;;;;;;;;;7.79;92.03;99530.22;4969807;28;20429;-68
2022/09/28 03:17:01;;;;;;;;;;;;;;;7.81;92.13;99525.91;4970430;28;20037;-69
2022/09/28 03:19:28;;;;;;;;;;;;;;;7.83;91.89;99529.41;4966043;28;19914;-68
2022/09/28 03:21:54;;;;;;;;;;;;;;;7.86;91.83;99528.56;4976186;28;19920;-69
2022/09/28 03:24:19;;;;;;;;;;;;;;;7.88;91.92;99529.47;4971639;28;20297;-68
2022/09/28 03:26:45;;;;;;;;;;;;;;;7.89;91.91;99536.38;4974060;28;19925;-68
2022/09/28 03:29:10;;;;;;;;;;;;;;;7.88;91.98;99534.66;4981189;28;20020;-68
2022/09/28 03:31:35;;;;;;;;;;;;;;;7.86;91.92;99533.75;4974097;28;20361;-69
2022/09/28 03:34:00;;;;;;;;;;;;;;;7.89;92.08;99536.38;4977478;28;20451;-69
2022/09/28 03:36:26;;;;;;;;;;;;;;;7.89;91.88;99527.72;4975026;28;20078;-69
2022/09/28 03:38:54;;;;;;;;;;;;;;;7.88;91.89;99521.69;4980356;28;19921;-68
2022/09/28 03:41:19;;;;;;;;;;;;;;;7.90;91.93;99530.34;4981844;28;20275;-69
2022/09/28 03:43:44;;;;;;;;;;;;;;;7.91;91.92;99539.88;4978583;28;20386;-68
2022/09/28 03:46:09;;;;;;;;;;;;;;;7.91;92.01;99539.00;4974368;28;20228;-69
2022/09/28 03:48:36;;;;;;;;;;;;;;;7.90;91.80;99537.25;4970676;28;20332;-69
2022/09/28 03:51:02;;;;;;;;;;;;;;;7.88;92.03;99537.25;4973530;28;19922;-68
2022/09/28 03:53:28;;;;;;;;;;;;;;;7.83;92.03;99534.59;4971874;28;19953;-69
2022/09/28 03:55:54;;;;;;;;;;;;;;;7.81;91.78;99540.59;4971049;28;19960;-68
2022/09/28 03:58:19;;;;;;;;;;;;;;;7.80;92.09;99536.25;4977429;28;19922;-69
2022/09/28 04:00:45;;;;;;;;;;;;;;;7.78;91.90;99540.56;4973119;28;19949;-68
2022/09/28 04:03:10;;;;;;;;;;;;;;;7.78;92.05;99537.97;4985221;28;20296;-69
2022/09/28 04:05:35;;;;;;;;;;;;;;;7.78;91.95;99544.03;4969826;28;19941;-69
2022/09/28 04:08:00;;;;;;;;;;;;;;;7.80;92.05;99541.44;4965369;28;20662;-63
2022/09/28 04:10:26;;;;;;;;;;;;;;;7.79;91.89;99540.59;4961041;28;20020;-63
2022/09/28 04:12:55;;;;;;;;;;;;;;;7.77;91.92;99539.66;4962243;28;19917;-63
2022/09/28 04:15:20;;;;;;;;;;;;;;;7.76;91.94;99544.84;4964776;28;19925;-63
2022/09/28 04:17:45;;;;;;;;;;;;;;;7.74;91.93;99541.38;4966194;28;20309;-62
2022/09/28 04:20:10;;;;;;;;;;;;;;;7.74;92.06;99541.38;4965495;28;19953;-63
2022/09/28 04:22:36;;;;;;;;;;;;;;;7.70;92.37;99542.16;4964966;28;19988;-63
2022/09/28 04:25:02;;;;;;;;;;;;;;;7.66;92.29;99541.25;4964716;28;19917;-63
2022/09/28 04:30:11;;;;;;;;;;;;;;;7.70;92.37;99539.56;4985727;28;19920;-63
2022/09/28 04:32:36;;;;;;;;;;;;;;;7.72;92.26;99532.69;4974611;28;19922;-63
2022/09/28 04:35:01;;;;;;;;;;;;;;;7.73;92.31;99529.25;4963795;28;19962;-62
2022/09/28 04:37:26;;;;;;;;;;;;;;;7.71;92.14;99524.03;4963784;28;19918;-69
2022/09/28 04:39:52;;;;;;;;;;;;;;;7.73;92.12;99527.50;4964836;28;19918;-69
2022/09/28 04:42:17;;;;;;;;;;;;;;;7.71;92.26;99529.22;4965072;28;20467;-68
2022/09/28 04:44:42;;;;;;;;;;;;;;;7.70;92.34;99524.88;4964309;28;19914;-69
2022/09/28 04:47:07;;;;;;;;;;;;;;;7.72;92.42;99530.09;4964621;28;19983;-68
2022/09/28 04:49:34;;;;;;;;;;;;;;;7.74;92.09;99531.00;4963842;28;19918;-69
2022/09/28 04:51:59;;;;;;;;;;;;;;;7.73;92.35;99540.47;4966934;28;19932;-68
2022/09/28 04:54:24;;;;;;;;;;;;;;;7.74;92.47;99538.78;4964285;28;19910;-68
2022/09/28 04:56:51;;;;;;;;;;;;;;;7.72;92.06;99543.94;4963740;28;19917;-69
2022/09/28 04:59:16;;;;;;;;;;;;;;;7.69;91.91;99543.00;4963919;28;19914;-69
2022/09/28 05:01:41;;;;;;;;;;;;;;;7.67;92.09;99545.59;4965654;28;19961;-67
2022/09/28 05:04:06;;;;;;;;;;;;;;;7.64;92.14;99550.72;4965239;28;19918;-68
2022/09/28 05:06:32;;;;;;;;;;;;;;;7.58;92.27;99550.66;4964564;28;19969;-68
2022/09/28 05:08:57;;;;;;;;;;;;;;;7.53;92.04;99548.00;4963340;28;20278;-69
2022/09/28 05:11:22;;;;;;;;;;;;;;;7.53;92.11;99552.28;4968155;28;19960;-68
2022/09/28 05:13:49;;;;;;;;;;;;;;;7.51;91.88;99559.19;4967018;28;20325;-69
2022/09/28 05:16:15;;;;;;;;;;;;;;;7.48;92.09;99553.09;4972756;28;20275;-69
2022/09/28 05:18:40;;;;;;;;;;;;;;;7.47;92.05;99553.06;4972640;28;20378;-69
2022/09/28 05:21:13;;;;;;;;;;;;;;;7.45;92.25;99550.44;4979272;28;19965;-69
2022/09/28 05:23:38;;;;;;;;;;;;;;;7.48;92.25;99545.31;4974063;28;20003;-68
2022/09/28 05:26:04;;;;;;;;;;;;;;;7.45;92.06;99540.09;4968269;28;19977;-68
2022/09/28 05:28:30;;;;;;;;;;;;;;;7.45;92.33;99550.44;4965333;28;19914;-69
2022/09/28 05:30:59;;;;;;;;;;;;;;;7.45;92.32;99553.03;4986649;28;19918;-69
2022/09/28 05:33:25;;;;;;;;;;;;;;;7.44;92.10;99555.59;4963818;28;19921;-68
2022/09/28 05:35:50;;;;;;;;;;;;;;;7.43;92.50;99556.44;4964035;28;20361;-68
2022/09/28 05:38:15;;;;;;;;;;;;;;;7.41;92.22;99553.84;4964031;28;19918;-68
2022/09/28 05:40:40;;;;;;;;;;;;;;;7.41;92.29;99556.44;4962945;28;19964;-69
2022/09/28 05:43:05;;;;;;;;;;;;;;;7.39;92.29;99555.53;4964165;28;19918;-69
2022/09/28 05:45:30;;;;;;;;;;;;;;;7.41;92.01;99546.06;4963378;28;20360;-69
2022/09/28 05:47:56;;;;;;;;;;;;;;;7.44;92.23;99553.91;4964028;28;21095;-69
2022/09/28 05:50:21;;;;;;;;;;;;;;;7.44;92.21;99551.31;4962544;28;19914;-68
2022/09/28 05:52:46;;;;;;;;;;;;;;;7.44;92.38;99553.91;4963210;28;19917;-68
2022/09/28 05:55:11;;;;;;;;;;;;;;;7.46;92.29;99557.38;4964933;28;19941;-68
2022/09/28 05:57:37;;;;;;;;;;;;;;;7.43;92.15;99562.53;4966671;28;20440;-69
2022/09/28 06:00:07;;;;;;;;;;;;;;;7.41;92.61;99556.44;4962902;28;19910;-69
2022/09/28 06:02:32;;;;;;;;;;;;;;;7.38;92.53;99564.16;4965127;28;19953;-69
2022/09/28 06:04:58;;;;;;;;;;;;;;;7.36;92.28;99563.28;4963663;28;20382;-69
2022/09/28 06:07:23;;;;;;;;;;;;;;;7.39;92.29;99563.31;4963149;28;19922;-68
2022/09/28 06:09:48;;;;;;;;;;;;;;;7.41;92.56;99563.34;4963164;28;19921;-68
2022/09/28 06:12:14;;;;;;;;;;;;;;;7.41;92.39;99564.19;4962993;28;20342;-69
2022/09/28 06:14:40;;;;;;;;;;;;;;;7.41;92.55;99569.38;4963596;28;19973;-68
2022/09/28 06:17:05;;;;;;;;;;;;;;;7.38;92.88;99579.72;4963013;28;19918;-68
2022/09/28 06:19:30;;;;;;;;;;;;;;;7.39;92.66;99575.41;4945731;28;20012;-69
2022/09/28 06:21:55;;;;;;;;;;;;;;;7.41;92.40;99582.34;4962943;28;19969;-69
2022/09/28 06:24:21;;;;;;;;;;;;;;;7.42;92.60;99580.66;4962265;28;20432;-68
2022/09/28 06:26:46;;;;;;;;;;;;;;;7.43;92.45;99587.53;4963498;28;19914;-69
2022/09/28 06:29:18;;;;;;;;;;;;;;;7.42;92.21;99581.50;4962632;28;19929;-69
2022/09/28 06:31:44;;;;;;;;;;;;;;;7.42;92.29;99576.31;4963259;28;19914;-69
2022/09/28 06:34:11;;;;;;;;;;;;;;;7.44;92.17;99585.00;4966559;28;19948;-68
2022/09/28 06:36:36;;;;;;;;;;;;;;;7.43;92.31;99580.66;4970102;28;20365;-69
2022/09/28 06:39:01;;;;;;;;;;;;;;;7.45;92.22;99591.91;4949880;28;20385;-68
2022/09/28 06:41:27;;;;;;;;;;;;;;;7.46;92.29;99588.47;4966993;28;19997;-69
2022/09/28 06:43:52;;;;;;;;;;;;;;;7.48;92.52;99593.69;4966743;28;20990;-69
2022/09/28 06:46:17;;;;;;;;;;;;;;;7.48;92.41;99591.97;4949632;28;20728;-68
2022/09/28 06:48:43;;;;;;;;;;;;;;;7.47;92.25;99597.13;4967623;28;20394;-68
2022/09/28 06:51:09;;;;;;;;;;;;;;;7.45;92.13;99597.09;4968168;28;19920;-68
2022/09/28 06:53:34;;;;;;;;;;;;;;;7.45;92.27;99602.28;4966400;28;19917;-69
2022/09/28 06:56:01;;;;;;;;;;;;;;;7.47;92.56;99600.59;4966280;28;19922;-69
2022/09/28 06:58:27;;;;;;;;;;;;;;;7.47;92.61;99600.59;4966270;28;19914;-69
2022/09/28 07:00:52;;;;;;;;;;;;;;;7.48;92.51;99602.31;4965727;28;20410;-69
2022/09/28 07:03:19;;;;;;;;;;;;;;;7.49;92.64;99605.81;4970685;28;20012;-69
2022/09/28 07:05:48;;;;;;;;;;;;;;;7.48;92.87;99607.50;4965504;28;19925;-69
2022/09/28 07:08:14;;;;;;;;;;;;;;;7.51;92.72;99606.69;4965911;28;20373;-63
2022/09/28 07:10:44;;;;;;;;;;;;;;;7.54;92.53;99616.25;4967783;28;19914;-63
2022/09/28 07:13:09;;;;;;;;;;;;;;;7.57;92.77;99605.91;4948680;28;19915;-63
2022/09/28 07:15:35;;;;;;;;;;;;;;;7.60;92.81;99613.75;4974603;28;19968;-63
2022/09/28 07:18:02;;;;;;;;;;;;;;;7.63;92.86;99621.56;4973310;28;19917;-63
2022/09/28 07:20:27;;;;;;;;;;;;;;;7.68;92.63;99613.88;4971632;28;19913;-64
2022/09/28 07:22:53;;;;;;;;;;;;;;;7.72;92.84;99616.53;4968584;28;19921;-63
2022/09/28 07:25:19;;;;;;;;;;;;;;;7.73;92.89;99617.41;4985727;28;19914;-63
2022/09/28 07:27:45;;;;;;;;;;;;;;;7.74;92.93;99621.75;4972921;28;19926;-63
2022/09/28 07:30:11;;;;;;;;;;;;;;;7.77;92.64;99622.66;4970707;28;19922;-63
2022/09/28 07:32:36;;;;;;;;;;;;;;;7.79;92.75;99618.38;4969376;28;20013;-64
2022/09/28 07:35:06;;;;;;;;;;;;;;;7.83;93.64;99619.28;4965176;28;19925;-63
2022/09/28 07:37:31;;;;;;;;;;;;;;;7.88;93.05;99629.72;4972553;28;19914;-69
2022/09/28 07:42:41;;;;;;;;;;;;;;;7.95;93.38;99623.75;4966821;28;20631;-69
2022/09/28 07:45:06;;;;;;;;;;;;;;;7.99;93.04;99626.44;4978463;28;19918;-69
2022/09/28 07:47:31;;;;;;;;;;;;;;;8.04;93.15;99631.69;4971021;28;19929;-69
2022/09/28 07:49:57;;;;;;;;;;;;;;;8.08;92.91;99630.91;4979115;28;19917;-69
2022/09/28 07:52:24;;;;;;;;;;;;;;;8.13;93.44;99637.00;4971461;28;20768;-69
2022/09/28 07:54:51;;;;;;;;;;;;;;;8.17;92.88;99630.16;4987605;28;20258;-69
2022/09/28 07:57:18;;;;;;;;;;;;;;;8.19;93.88;99639.69;4980326;28;20025;-68
2022/09/28 07:59:43;;;;;;;;;;;;;;;8.25;93.75;99640.63;4973790;28;19918;-69
2022/09/28 08:02:09;;;;;;;;;;;;;;;8.28;93.43;99644.13;4969349;28;19921;-70
2022/09/28 08:04:34;;;;;;;;;;;;;;;8.32;93.51;99632.06;4973347;28;19928;-69
2022/09/28 08:07:01;;;;;;;;;;;;;;;8.37;93.21;99640.78;4967328;28;19906;-68
2022/09/28 08:09:27;;;;;;;;;;;;;;;8.41;93.36;99637.38;4968601;28;19922;-69
2022/09/28 08:11:53;;;;;;;;;;;;;;;8.47;93.33;99652.19;4982831;28;19912;-69
2022/09/28 08:14:18;;;;;;;;;;;;;;;8.51;93.10;99646.19;4988069;28;19925;-69
2022/09/28 08:16:44;;;;;;;;;;;;;;;8.57;93.21;99654.03;4978414;28;20363;-69
2022/09/28 08:19:09;;;;;;;;;;;;;;;8.61;93.41;99663.63;4972340;28;19918;-69
2022/09/28 08:21:43;;;;;;;;;;;;;;;8.65;93.14;99647.22;4973369;28;19968;-69
2022/09/28 08:24:09;;;;;;;;;;;;;;;8.72;93.10;99655.06;4980760;28;19918;-69
2022/09/28 08:26:34;;;;;;;;;;;;;;;8.77;93.21;99659.47;4979930;28;19920;-69
2022/09/28 08:28:59;;;;;;;;;;;;;;;8.81;93.51;99656.06;4972567;28;19918;-69
2022/09/28 08:31:24;;;;;;;;;;;;;;;8.87;93.18;99661.31;4971850;28;19917;-68
2022/09/28 08:33:52;;;;;;;;;;;;;;;8.93;93.31;99662.25;4974842;28;20016;-69
2022/09/28 08:36:17;;;;;;;;;;;;;;;8.98;92.93;99666.66;4968518;28;20429;-70
2022/09/28 08:38:43;;;;;;;;;;;;;;;9.04;93.07;99665.84;4975887;28;19961;-69
2022/09/28 08:41:14;;;;;;;;;;;;;;;9.11;93.38;99669.38;4976728;28;19941;-69
2022/09/28 08:43:58;;;;;;;;;;;;;;;9.15;93.34;99677.25;4974830;28;19917;-70
2022/09/28 08:46:25;;;;;;;;;;;;;;;9.21;92.83;99672.09;4976177;28;20408;-69
2022/09/28 08:48:53;;;;;;;;;;;;;;;9.27;92.64;99675.59;4985052;28;20389;-69
2022/09/28 08:51:21;;;;;;;;;;;;;;;9.33;92.57;99675.69;4975708;28;19918;-69
2022/09/28 08:53:56;;;;;;;;;;;;;;;9.36;92.69;99680.91;4983469;28;20296;-69
2022/09/28 08:56:36;;;;;;;;;;;;;;;9.41;92.90;99679.19;4972250;28;20402;-69
2022/09/28 08:59:03;;;;;;;;;;;;;;;9.49;92.48;99684.50;4977804;28;19914;-69
2022/09/28 09:01:34;;;;;;;;;;;;;;;9.54;92.11;99682.78;4972907;28;19917;-69
2022/09/28 09:03:59;;;;;;;;;;;;;;;9.56;92.08;99687.16;4972299;28;20004;-69
2022/09/28 09:06:44;;;;;;;;;;;;;;;9.62;92.27;99688.06;4972064;28;20057;-69
2022/09/28 09:09:32;;;;;;;;;;;;;;;9.69;92.26;99687.25;4971929;28;19969;-68
2022/09/28 09:11:57;;;;;;;;;;;;;;;9.77;92.64;99689.94;4973646;28;19922;-69
2022/09/28 09:14:41;;;;;;;;;;;;;;;9.85;92.90;99691.72;4969407;28;19929;-69
2022/09/28 09:17:17;;;;;;;;;;;;;;;9.98;92.60;99692.69;4974216;28;19914;-68
2022/09/28 09:19:42;;;;;;;;;;;;;;;10.09;92.18;99692.75;4971837;28;19922;-69
2022/09/28 09:22:24;;;;;;;;;;;;;;;10.19;92.01;99697.16;4967120;28;19921;-69
2022/09/28 09:24:54;;;;;;;;;;;;;;;10.30;91.76;99698.97;4964925;28;19965;-69
2022/09/28 09:27:19;;;;;;;;;;;;;;;10.38;91.75;99698.19;4968299;28;19924;-69
2022/09/28 09:29:54;;;;;;;;;;;;;;;10.50;91.84;99705.22;4970954;28;19917;-69
2022/09/28 09:32:29;;;;;;;;;;;;;;;10.63;91.29;99707.88;4970745;28;19914;-69
2022/09/28 09:35:10;;;;;;;;;;;;;;;10.78;91.34;99707.94;4973072;28;19924;-69
2022/09/28 09:37:38;;;;;;;;;;;;;;;10.91;91.19;99714.94;4968068;28;20001;-69
2022/09/28 09:40:15;;;;;;;;;;;;;;;11.00;90.78;99711.50;4966759;28;19917;-69
2022/09/28 09:42:59;;;;;;;;;;;;;;;11.07;90.72;99715.88;4965588;28;20024;-69
2022/09/28 09:45:28;;;;;;;;;;;;;;;11.19;90.86;99715.03;4968048;28;19914;-69
2022/09/28 09:47:58;;;;;;;;;;;;;;;11.27;90.20;99715.94;4961726;28;19926;-62
2022/09/28 09:50:28;;;;;;;;;;;;;;;11.27;90.00;99713.31;4961626;28;19917;-62
2022/09/28 09:52:59;;;;;;;;;;;;;;;11.29;89.96;99719.41;4977225;28;19917;-63
2022/09/28 09:55:28;;;;;;;;;;;;;;;11.38;90.38;99720.28;4972892;28;19928;-62
2022/09/28 09:57:56;;;;;;;;;;;;;;;11.48;88.21;99717.72;4977055;28;19918;-62
2022/09/28 10:00:22;;;;;;;;;;;;;;;11.56;88.10;99717.72;4985285;28;19940;-64
2022/09/28 10:02:48;;;;;;;;;;;;;;;11.64;88.11;99716.00;4977201;28;19913;-63
2022/09/28 10:05:19;;;;;;;;;;;;;;;11.81;88.21;99715.13;4985565;28;19914;-62
2022/09/28 10:07:54;;;;;;;;;;;;;;;11.92;86.48;99715.13;4973469;28;19918;-62
2022/09/28 10:10:23;;;;;;;;;;;;;;;11.95;86.59;99717.78;4991306;28;19917;-63
2022/09/28 10:12:50;;;;;;;;;;;;;;;12.03;86.42;99720.38;4983601;28;19918;-62
2022/09/28 10:15:17;;;;;;;;;;;;;;;12.18;86.44;99712.56;4969811;28;20354;-63
2022/09/28 10:17:42;;;;;;;;;;;;;;;12.40;86.53;99709.88;4980350;28;19953;-69
2022/09/28 10:20:11;;;;;;;;;;;;;;;12.54;85.82;99715.94;4991259;28;20066;-69
2022/09/28 10:22:37;;;;;;;;;;;;;;;12.59;85.74;99710.72;4974717;28;20121;-69
2022/09/28 10:25:04;;;;;;;;;;;;;;;12.60;85.55;99709.81;4979597;28;19918;-69
2022/09/28 10:27:32;;;;;;;;;;;;;;;12.59;85.34;99708.97;4977224;28;20397;-69
2022/09/28 10:30:07;;;;;;;;;;;;;;;12.70;85.48;99715.03;4969516;28;20239;-70
2022/09/28 10:32:39;;;;;;;;;;;;;;;12.86;85.40;99712.34;4971413;28;19913;-70
2022/09/28 10:35:16;;;;;;;;;;;;;;;12.97;84.70;99707.94;4975355;28;19980;-69
2022/09/28 10:37:46;;;;;;;;;;;;;;;13.07;84.43;99697.47;4973924;28;19965;-69
2022/09/28 10:40:30;;;;;;;;;;;;;;;13.07;85.17;99713.16;4980134;28;19940;-69
2022/09/28 10:42:59;;;;;;;;;;;;;;;13.08;85.09;99700.06;4988525;28;19979;-70
2022/09/28 10:45:25;;;;;;;;;;;;;;;13.06;83.93;99701.78;4979093;28;19918;-69
2022/09/28 10:47:50;;;;;;;;;;;;;;;13.02;84.72;99706.19;4978501;28;19928;-70
2022/09/28 10:50:23;;;;;;;;;;;;;;;13.00;84.14;99709.69;4985782;28;19913;-70
2022/09/28 10:52:49;;;;;;;;;;;;;;;12.94;84.58;99713.19;4975828;28;19956;-70
2022/09/28 10:55:20;;;;;;;;;;;;;;;12.89;84.43;99709.75;4979141;28;19981;-69
2022/09/28 10:57:46;;;;;;;;;;;;;;;12.79;82.15;99713.25;4979151;28;20206;-69
2022/09/28 11:00:31;;;;;;;;;;;;;;;12.84;83.81;99703.66;4983637;28;19922;-69
2022/09/28 11:02:56;;;;;;;;;;;;;;;13.04;84.26;99706.19;4988875;28;19913;-69
2022/09/28 11:05:26;;;;;;;;;;;;;;;13.26;83.77;99703.44;4972307;28;19910;-68
2022/09/28 11:07:54;;;;;;;;;;;;;;;13.47;83.20;99702.47;4978897;28;19922;-69
2022/09/28 11:10:20;;;;;;;;;;;;;;;13.61;82.43;99699.75;4988297;28;19909;-70
2022/09/28 11:12:46;;;;;;;;;;;;;;;13.73;81.90;99699.69;4968781;28;20414;-69
2022/09/28 11:15:19;;;;;;;;;;;;;;;13.79;81.31;99706.59;4983651;28;19960;-69
2022/09/28 11:17:45;;;;;;;;;;;;;;;13.80;80.91;99706.59;4980416;28;19914;-69
2022/09/28 11:20:22;;;;;;;;;;;;;;;13.84;81.69;99703.06;4975599;28;19914;-69
2022/09/28 11:22:47;;;;;;;;;;;;;;;13.84;80.94;99700.44;4974418;28;20424;-69
2022/09/28 11:25:16;;;;;;;;;;;;;;;13.82;81.67;99703.97;4988689;28;19913;-69
2022/09/28 11:27:53;;;;;;;;;;;;;;;13.80;81.10;99703.09;4986613;28;19980;-69
2022/09/28 11:30:23;;;;;;;;;;;;;;;13.72;79.87;99704.03;4980373;28;19918;-69
2022/09/28 11:32:49;;;;;;;;;;;;;;;13.65;81.76;99707.56;4989283;28;19953;-69
2022/09/28 11:35:17;;;;;;;;;;;;;;;13.57;82.30;99706.78;4978915;28;19918;-69
2022/09/28 11:37:42;;;;;;;;;;;;;;;13.47;82.44;99715.53;4984663;28;19957;-69
2022/09/28 11:40:21;;;;;;;;;;;;;;;13.36;82.76;99724.34;4981520;28;19988;-69
2022/09/28 11:42:54;;;;;;;;;;;;;;;13.24;82.40;99716.53;4980896;28;19918;-69
2022/09/28 11:45:33;;;;;;;;;;;;;;;13.08;83.00;99715.75;4991192;28;19956;-69
2022/09/28 11:48:04;;;;;;;;;;;;;;;12.99;83.29;99715.78;4982652;28;20160;-69
2022/09/28 11:50:29;;;;;;;;;;;;;;;12.91;83.38;99707.97;4982272;28;19913;-69
2022/09/28 11:52:59;;;;;;;;;;;;;;;12.83;83.64;99714.97;4981527;28;19918;-69
2022/09/28 11:55:30;;;;;;;;;;;;;;;12.83;84.11;99710.63;4987767;28;19914;-69
2022/09/28 11:58:00;;;;;;;;;;;;;;;12.95;84.44;99707.09;4980064;28;19910;-69
2022/09/28 12:00:26;;;;;;;;;;;;;;;13.12;84.54;99696.56;4978966;28;19961;-69
2022/09/28 12:02:58;;;;;;;;;;;;;;;13.31;84.02;99697.31;4973043;28;19945;-69
2022/09/28 12:05:23;;;;;;;;;;;;;;;13.46;84.64;99699.00;4976991;28;19926;-69
2022/09/28 12:07:57;;;;;;;;;;;;;;;13.69;83.94;99693.59;4966214;28;19922;-69
2022/09/28 12:10:34;;;;;;;;;;;;;;;13.93;83.81;99699.50;4974581;28;19917;-69
2022/09/28 12:13:02;;;;;;;;;;;;;;;14.12;83.52;99701.94;4967851;28;19929;-70
2022/09/28 12:15:36;;;;;;;;;;;;;;;14.28;81.57;99703.56;4973698;28;19926;-69
2022/09/28 12:18:05;;;;;;;;;;;;;;;14.36;80.79;99699.09;4976492;28;19997;-69
2022/09/28 12:20:42;;;;;;;;;;;;;;;14.29;80.39;99694.78;4973650;28;19965;-69
2022/09/28 12:23:13;;;;;;;;;;;;;;;14.19;81.07;99699.28;4982792;28;20333;-69
2022/09/28 12:25:41;;;;;;;;;;;;;;;14.14;80.53;99697.59;4959771;28;19965;-69
2022/09/28 12:28:11;;;;;;;;;;;;;;;14.13;80.87;99701.06;4977671;28;19929;-69
2022/09/28 12:30:39;;;;;;;;;;;;;;;14.15;81.04;99702.81;4991690;28;19968;-69
2022/09/28 12:33:10;;;;;;;;;;;;;;;14.16;78.93;99703.66;4981477;28;19910;-69
2022/09/28 12:35:58;;;;;;;;;;;;;;;14.09;80.09;99708.06;4985446;28;19917;-69
2022/09/28 12:38:29;;;;;;;;;;;;;;;14.01;81.05;99712.53;4974793;28;19910;-70
2022/09/28 12:40:58;;;;;;;;;;;;;;;13.90;80.88;99713.50;4984588;28;19910;-69
2022/09/28 12:43:41;;;;;;;;;;;;;;;13.74;81.60;99711.88;4982633;28;20000;-69
2022/09/28 12:46:25;;;;;;;;;;;;;;;13.61;81.16;99715.47;4986884;28;19929;-70
2022/09/28 12:49:08;;;;;;;;;;;;;;;13.50;82.33;99705.09;4976871;28;19921;-63
2022/09/28 12:51:33;;;;;;;;;;;;;;;13.51;81.58;99705.06;4983177;28;19913;-63
2022/09/28 12:54:14;;;;;;;;;;;;;;;13.57;82.40;99709.41;4988816;28;19914;-64
2022/09/28 12:56:48;;;;;;;;;;;;;;;13.70;82.31;99704.91;4978262;28;20309;-64
2022/09/28 12:59:17;;;;;;;;;;;;;;;13.77;81.81;99688.28;4977093;28;19968;-63
2022/09/28 13:02:00;;;;;;;;;;;;;;;13.82;81.68;99694.34;4988042;28;20065;-63
2022/09/28 13:04:54;;;;;;;;;;;;;;;13.90;81.03;99695.16;4967138;28;19922;-64
2022/09/28 13:07:20;;;;;;;;;;;;;;;13.97;80.44;99708.22;4905691;28;19952;-64